Warrensburg, MO

6:10 PM CST on November 21, 2014 (GMT -0600)
Clinton Memorial | Change Station
CLOSE
Current Station
Airport
Location: Clinton,
Elevation: 823 ft
Nearby Weather Stations

Elev 823 ft 38.36 °N, 93.68 °W | Updated 15 minutes ago

Overcast
Overcast
43 °F
Feels Like 41 °F
N
4
Wind Variable Wind from ESE

Today
High -- | Low -- °F
--% Chance of Precip.
Yesterday
High -- | Low -- °F
Precip. -- in
7:03 AM 4:57 PM
Waning Crescent, 0% visible
Pressure 30.13 in
Visibility 9.0 miles
Clouds Few 2900 ft
Overcast 5000 ft
Windchill 41 °F
Dew Point 41 °F
Humidity 93%
Rainfall 0.15 in
Snow Depth Not available.
UV 0 out of 12
Pollen .10 out of 12
Air Quality Not available.
Flu Activity Not available.
METAR KGLY 212355Z AUTO 12003KT 9SM FEW029 OVC050 06/05 A3013 RMK AO2

More Conditions Fewer Conditions

Pressure 30.13 in
Visibility 9.0 miles
Clouds Few 2900 ft
Overcast 5000 ft
Windchill 41 °F
Dew Point 41 °F
Humidity 93%
Rainfall 0.15 in
Snow Depth Not available.
UV 0 out of 12
Pollen .10 out of 12
Air Quality Not available.
Flu Activity Not available.
METAR KGLY 212355Z AUTO 12003KT 9SM FEW029 OVC050 06/05 A3013 RMK AO2

More Conditions Fewer Conditions

10-Day Weather Forecast

Almanac

Astronomy

Nov. 21, 2014 Rise Set
Actual Time
Civil Twilight
Nautical Twilight
Astronomical Twilight
Moon
Length of Visible Light
Length of Day
Tomorrow will be .
, % of the Moon is Illuminated

Today's Extremes

State Highs State Lows

Community

WunderPhotos

Upload Photos

1,772,744 photos uploaded!

WunderBlogs® & News

Nearby

Air Quality

  Air Quality AQ Index Pollutant
Not available.

Snow Depth

Station Depth Elevation

Earthquake Activity

City Distance Mag. Time & Date
Minimum magnitude displayed is 2.5.

Coastal Water Temperatures

Place Temperature

Nearby Weather Stations